createdAt,value
2019-04-03T00:00:17.074Z,2.70
2019-04-03T00:01:17.070Z,2.80
2019-04-03T00:02:17.033Z,3.00
2019-04-03T00:03:17.046Z,2.50
2019-04-03T00:04:17.012Z,2.40
2019-04-03T00:05:17.001Z,2.50
2019-04-03T00:06:17.016Z,2.60
2019-04-03T00:07:16.982Z,2.40
2019-04-03T00:08:16.967Z,2.60
2019-04-03T00:09:16.955Z,2.60
2019-04-03T00:10:16.944Z,2.40
2019-04-03T00:11:16.944Z,2.70
2019-04-03T00:12:16.937Z,2.20
2019-04-03T00:13:16.925Z,2.40
2019-04-03T00:14:16.905Z,2.50
2019-04-03T00:15:16.891Z,2.40
2019-04-03T00:16:16.888Z,2.20
2019-04-03T00:17:16.909Z,2.30
2019-04-03T00:18:16.892Z,2.30
2019-04-03T00:19:17.727Z,2.40
2019-04-03T00:20:18.397Z,2.40
2019-04-03T00:21:17.693Z,2.30
2019-04-03T00:22:16.827Z,2.20
2019-04-03T00:23:16.817Z,2.40
2019-04-03T00:24:16.788Z,2.10
2019-04-03T00:25:16.790Z,2.30
2019-04-03T00:26:16.778Z,2.30
2019-04-03T00:27:16.904Z,2.30
2019-04-03T00:28:16.804Z,2.30
2019-04-03T00:29:16.747Z,2.20
2019-04-03T00:30:16.809Z,2.10
2019-04-03T00:31:16.721Z,2.20
2019-04-03T00:32:16.820Z,2.50
2019-04-03T00:33:16.726Z,2.30
2019-04-03T00:34:16.698Z,2.30
2019-04-03T00:35:16.675Z,2.40
2019-04-03T00:36:16.700Z,2.30
2019-04-03T00:37:16.675Z,2.40
2019-04-03T00:38:16.719Z,2.30
2019-04-03T00:39:16.630Z,2.30
2019-04-03T00:40:16.625Z,2.50
2019-04-03T00:41:16.799Z,2.30
2019-04-03T00:42:16.656Z,2.10
2019-04-03T00:43:16.581Z,2.50
2019-04-03T00:44:16.668Z,2.20
2019-04-03T00:45:16.572Z,2.30
2019-04-03T00:46:16.569Z,2.00
2019-04-03T00:47:16.543Z,2.30
2019-04-03T00:48:16.554Z,2.20
2019-04-03T00:49:16.527Z,2.10
2019-04-03T00:50:16.515Z,2.30
2019-04-03T00:51:16.496Z,2.40
2019-04-03T00:52:16.506Z,2.00
2019-04-03T00:53:16.492Z,2.50
2019-04-03T00:54:16.470Z,1.90
2019-04-03T00:55:16.453Z,2.20
2019-04-03T00:56:16.449Z,2.10
2019-04-03T00:57:16.447Z,2.00
2019-04-03T00:58:16.415Z,2.20
2019-04-03T00:59:16.480Z,2.30
2019-04-03T01:00:16.408Z,2.00
2019-04-03T01:01:16.423Z,2.30
2019-04-03T01:02:16.822Z,2.30
2019-04-03T01:03:16.365Z,2.20
2019-04-03T01:04:16.350Z,2.00
2019-04-03T01:05:16.362Z,2.10
2019-04-03T01:06:16.334Z,2.10
2019-04-03T01:07:16.318Z,2.20
2019-04-03T01:08:16.312Z,2.30
2019-04-03T01:09:16.299Z,2.20
2019-04-03T01:10:16.308Z,2.00
2019-04-03T01:11:16.271Z,2.10
2019-04-03T01:12:16.331Z,2.30
2019-04-03T01:13:16.300Z,2.30
2019-04-03T01:14:16.271Z,2.00
2019-04-03T01:15:16.232Z,2.30
2019-04-03T01:16:16.327Z,2.20
2019-04-03T01:17:16.207Z,2.30
2019-04-03T01:18:16.195Z,2.20
2019-04-03T01:19:16.190Z,2.00
2019-04-03T01:20:16.189Z,1.90
2019-04-03T01:21:16.429Z,2.00
2019-04-03T01:22:16.158Z,2.40
2019-04-03T01:23:16.161Z,2.00
2019-04-03T01:24:16.128Z,2.10
2019-04-03T01:25:16.118Z,2.00
2019-04-03T01:26:16.108Z,1.90
2019-04-03T01:27:16.134Z,2.10
2019-04-03T01:28:16.103Z,2.20
2019-04-03T01:29:16.069Z,2.00
2019-04-03T01:30:16.059Z,2.00
2019-04-03T01:31:16.055Z,1.90
2019-04-03T01:32:16.248Z,1.70
2019-04-03T01:33:16.434Z,2.00
2019-04-03T01:34:17.836Z,1.80
2019-04-03T01:35:17.446Z,2.00
2019-04-03T01:36:17.676Z,1.90
2019-04-03T01:37:16.809Z,1.80
2019-04-03T01:38:15.982Z,1.90
2019-04-03T01:39:15.968Z,1.90
2019-04-03T01:40:15.960Z,1.80
2019-04-03T01:41:15.999Z,1.70
2019-04-03T01:42:15.932Z,1.80
2019-04-03T01:43:15.932Z,1.80
2019-04-03T01:44:15.902Z,1.90
2019-04-03T01:45:15.917Z,1.70
2019-04-03T01:46:15.879Z,1.80
2019-04-03T01:47:15.889Z,1.90
2019-04-03T01:48:15.923Z,1.60
2019-04-03T01:49:15.889Z,1.80
2019-04-03T01:50:15.839Z,1.60
2019-04-03T01:51:15.825Z,1.80
2019-04-03T01:52:15.824Z,1.80
2019-04-03T01:53:15.826Z,1.80
2019-04-03T01:54:15.888Z,1.60
2019-04-03T01:55:15.798Z,1.80
2019-04-03T01:56:15.772Z,1.60
2019-04-03T01:57:15.772Z,1.60
2019-04-03T01:58:15.888Z,1.90
2019-04-03T01:59:15.737Z,1.70
2019-04-03T02:00:15.974Z,1.70
2019-04-03T02:01:15.754Z,1.80
2019-04-03T02:02:15.704Z,1.70
2019-04-03T02:03:15.687Z,1.50
2019-04-03T02:04:15.705Z,1.60
2019-04-03T02:05:15.668Z,1.60
2019-04-03T02:06:15.870Z,1.80
2019-04-03T02:07:15.644Z,1.70
2019-04-03T02:08:15.633Z,1.50
2019-04-03T02:09:16.339Z,1.70
2019-04-03T02:10:15.969Z,1.60
2019-04-03T02:11:18.082Z,1.80
2019-04-03T02:12:15.606Z,1.80
2019-04-03T02:13:15.591Z,1.60
2019-04-03T02:14:15.670Z,1.50
2019-04-03T02:15:15.557Z,1.60
2019-04-03T02:16:15.574Z,1.50
2019-04-03T02:17:15.545Z,1.50
2019-04-03T02:18:15.534Z,1.50
2019-04-03T02:19:15.517Z,1.70
2019-04-03T02:20:15.497Z,1.60
2019-04-03T02:21:15.498Z,1.60
2019-04-03T02:22:15.642Z,1.50
2019-04-03T02:23:15.475Z,1.70
2019-04-03T02:24:15.480Z,1.50
2019-04-03T02:25:15.470Z,1.50
2019-04-03T02:26:15.430Z,1.50
2019-04-03T02:27:15.591Z,1.50
2019-04-03T02:28:15.513Z,1.70
2019-04-03T02:29:15.408Z,1.50
2019-04-03T02:30:15.423Z,1.40
2019-04-03T02:31:18.234Z,1.60
2019-04-03T02:32:15.382Z,1.50
2019-04-03T02:33:15.354Z,1.40
2019-04-03T02:34:15.498Z,1.50
2019-04-03T02:35:15.347Z,1.50
2019-04-03T02:36:15.329Z,1.40
2019-04-03T02:37:16.992Z,1.70
2019-04-03T02:38:15.299Z,1.80
2019-04-03T02:39:15.304Z,1.50
2019-04-03T02:40:15.474Z,1.40
2019-04-03T02:41:15.662Z,1.60
2019-04-03T02:42:15.270Z,1.60
2019-04-03T02:43:15.559Z,1.70
2019-04-03T02:44:18.214Z,1.60
2019-04-03T02:45:15.424Z,1.40
2019-04-03T02:46:15.220Z,1.40
2019-04-03T02:47:15.311Z,1.40
2019-04-03T02:48:15.264Z,1.50
2019-04-03T02:49:15.181Z,1.50
2019-04-03T02:50:15.534Z,1.50
2019-04-03T02:51:17.018Z,1.40
2019-04-03T02:52:15.144Z,1.50
2019-04-03T02:53:15.160Z,1.40
2019-04-03T02:54:15.144Z,1.50
2019-04-03T02:55:15.110Z,1.60
2019-04-03T02:56:15.114Z,1.40
2019-04-03T02:57:17.734Z,1.60
2019-04-03T02:58:15.078Z,1.70
2019-04-03T02:59:15.103Z,1.40
2019-04-03T03:00:15.054Z,1.50
2019-04-03T03:01:15.042Z,1.40
2019-04-03T03:02:15.036Z,1.60
2019-04-03T03:03:17.274Z,1.50
2019-04-03T03:04:15.106Z,1.60
2019-04-03T03:05:15.027Z,1.30
2019-04-03T03:06:15.138Z,1.30
2019-04-03T03:07:14.978Z,1.50
2019-04-03T03:08:14.980Z,1.30
2019-04-03T03:09:15.193Z,1.30
2019-04-03T03:10:18.643Z,1.50
2019-04-03T03:11:14.934Z,1.30
2019-04-03T03:12:14.945Z,1.30
2019-04-03T03:13:14.940Z,1.40
2019-04-03T03:14:14.923Z,1.20
2019-04-03T03:15:14.919Z,1.30
2019-04-03T03:16:17.977Z,1.30
2019-04-03T03:17:14.880Z,1.30
2019-04-03T03:18:14.855Z,1.40
2019-04-03T03:19:14.843Z,1.40
2019-04-03T03:20:14.852Z,1.30
2019-04-03T03:21:14.852Z,1.40
2019-04-03T03:22:17.367Z,1.30
2019-04-03T03:23:14.815Z,1.40
2019-04-03T03:24:14.792Z,1.20
2019-04-03T03:25:14.796Z,1.10
2019-04-03T03:26:14.793Z,1.10
2019-04-03T03:27:14.776Z,1.30
2019-04-03T03:28:14.947Z,1.30
2019-04-03T03:29:18.606Z,1.30
2019-04-03T03:30:41.899Z,1.10
2019-04-03T03:31:16.066Z,1.10
2019-04-03T03:32:20.019Z,1.30
2019-04-03T03:33:32.717Z,1.10
2019-04-03T03:34:15.687Z,1.20
2019-04-03T03:35:18.557Z,1.00
2019-04-03T03:36:21.828Z,1.10
2019-04-03T03:37:15.745Z,1.10
2019-04-03T03:38:14.630Z,1.20
2019-04-03T03:39:14.838Z,1.20
2019-04-03T03:40:16.178Z,1.20
2019-04-03T03:41:14.631Z,1.10
2019-04-03T03:42:14.595Z,1.10
2019-04-03T03:43:14.598Z,1.10
2019-04-03T03:44:14.647Z,1.20
2019-04-03T03:45:18.382Z,1.10
2019-04-03T03:46:15.578Z,1.20
2019-04-03T03:47:14.722Z,1.20
2019-04-03T03:48:14.523Z,1.10
2019-04-03T03:49:17.495Z,1.20
2019-04-03T03:50:14.519Z,1.20
2019-04-03T03:51:14.492Z,1.10
2019-04-03T03:52:14.483Z,1.30
2019-04-03T03:53:14.508Z,1.00
2019-04-03T03:54:16.911Z,1.10
2019-04-03T03:55:14.772Z,1.20
2019-04-03T03:56:14.436Z,1.20
2019-04-03T03:57:14.445Z,1.40
2019-04-03T03:58:14.430Z,1.10
2019-04-03T03:59:17.535Z,1.20
2019-04-03T04:00:14.519Z,1.00
2019-04-03T04:01:14.394Z,1.00
2019-04-03T04:02:14.378Z,1.00
2019-04-03T04:03:14.352Z,1.00
2019-04-03T04:04:15.599Z,1.00
2019-04-03T04:05:14.348Z,1.10
2019-04-03T04:06:14.787Z,1.00
2019-04-03T04:07:14.310Z,1.10
2019-04-03T04:08:14.308Z,1.00
2019-04-03T04:09:17.117Z,1.10
2019-04-03T04:10:14.346Z,1.10
2019-04-03T04:11:14.297Z,1.00
2019-04-03T04:12:14.276Z,1.30
2019-04-03T04:13:15.789Z,1.10
2019-04-03T04:14:14.245Z,1.10
2019-04-03T04:15:14.473Z,1.20
2019-04-03T04:16:14.224Z,0.90
2019-04-03T04:17:16.879Z,1.10
2019-04-03T04:18:15.300Z,1.10
2019-04-03T04:19:14.185Z,0.80
2019-04-03T04:20:14.181Z,1.00
2019-04-03T04:21:14.386Z,1.10
2019-04-03T04:22:16.323Z,1.00
2019-04-03T04:23:14.189Z,0.90
2019-04-03T04:24:14.321Z,1.00
2019-04-03T04:25:14.189Z,1.00
2019-04-03T04:26:14.103Z,1.10
2019-04-03T04:27:14.096Z,1.00
2019-04-03T04:28:14.079Z,1.00
2019-04-03T04:29:14.067Z,1.20
2019-04-03T04:30:14.177Z,1.00
2019-04-03T04:31:14.054Z,1.10
2019-04-03T04:32:15.003Z,1.20
2019-04-03T04:33:16.434Z,1.10
2019-04-03T04:34:14.016Z,0.90
2019-04-03T04:35:14.019Z,1.10
2019-04-03T04:36:13.980Z,1.10
2019-04-03T04:37:13.987Z,1.20
2019-04-03T04:38:14.117Z,1.00
2019-04-03T04:39:13.949Z,1.00
2019-04-03T04:40:13.955Z,1.20
2019-04-03T04:41:13.929Z,1.10
2019-04-03T04:42:13.916Z,1.30
2019-04-03T04:43:14.345Z,1.10
2019-04-03T04:44:15.066Z,1.10
2019-04-03T04:45:13.898Z,1.30
2019-04-03T04:46:14.050Z,1.50
2019-04-03T04:47:15.050Z,1.20
2019-04-03T04:48:16.161Z,1.30
2019-04-03T04:49:13.926Z,1.40
2019-04-03T04:50:13.828Z,1.40
2019-04-03T04:51:13.858Z,1.30
2019-04-03T04:52:13.805Z,1.30
2019-04-03T04:53:13.817Z,1.30
2019-04-03T04:54:13.815Z,1.10
2019-04-03T04:55:13.839Z,1.40
2019-04-03T04:56:13.774Z,1.20
2019-04-03T04:57:13.771Z,1.30
2019-04-03T04:58:13.827Z,1.10
2019-04-03T04:59:14.244Z,1.20
2019-04-03T05:00:15.489Z,1.30
2019-04-03T05:01:13.710Z,1.30
2019-04-03T05:02:13.702Z,1.30
2019-04-03T05:03:13.709Z,1.20
2019-04-03T05:04:15.852Z,1.40
2019-04-03T05:05:13.676Z,1.40
2019-04-03T05:06:13.661Z,1.30
2019-04-03T05:07:16.395Z,1.20
2019-04-03T05:08:13.635Z,1.30
2019-04-03T05:09:13.624Z,1.20
2019-04-03T05:10:13.613Z,1.30
2019-04-03T05:11:13.742Z,1.20
2019-04-03T05:12:13.596Z,1.00
2019-04-03T05:13:15.266Z,1.20
2019-04-03T05:14:13.608Z,1.10
2019-04-03T05:15:13.553Z,1.00
2019-04-03T05:16:13.558Z,1.20
2019-04-03T05:17:13.549Z,1.10
2019-04-03T05:18:13.739Z,1.00
2019-04-03T05:19:18.432Z,1.10
2019-04-03T05:20:14.493Z,1.00
2019-04-03T05:21:13.495Z,1.00
2019-04-03T05:22:13.721Z,1.20
2019-04-03T05:23:13.459Z,1.10
2019-04-03T05:24:13.777Z,1.10
2019-04-03T05:25:13.496Z,1.10
2019-04-03T05:26:13.437Z,1.10
2019-04-03T05:27:13.410Z,1.20
2019-04-03T05:28:13.402Z,1.20
2019-04-03T05:29:13.389Z,1.00
2019-04-03T05:30:13.569Z,1.20
2019-04-03T05:31:13.378Z,1.10
2019-04-03T05:32:13.364Z,1.00
2019-04-03T05:33:13.423Z,1.00
2019-04-03T05:34:13.796Z,1.00
2019-04-03T05:35:14.960Z,1.10
2019-04-03T05:36:13.403Z,1.10
2019-04-03T05:37:13.344Z,1.00
2019-04-03T05:38:13.415Z,1.20
2019-04-03T05:39:13.283Z,1.10
2019-04-03T05:40:13.460Z,1.30
2019-04-03T05:41:13.284Z,1.20
2019-04-03T05:42:13.374Z,1.10
2019-04-03T05:43:13.242Z,1.20
2019-04-03T05:44:13.272Z,1.10
2019-04-03T05:45:13.297Z,1.00
2019-04-03T05:46:13.212Z,1.20
2019-04-03T05:47:13.209Z,1.20
2019-04-03T05:48:17.252Z,1.50
2019-04-03T05:49:13.260Z,1.00
2019-04-03T05:50:13.156Z,1.00
2019-04-03T05:51:13.150Z,1.00
2019-04-03T05:52:13.157Z,1.30
2019-04-03T05:53:13.382Z,1.20
2019-04-03T05:54:14.399Z,1.20
2019-04-03T05:55:13.107Z,1.10
2019-04-03T05:56:13.099Z,1.00
2019-04-03T05:57:14.073Z,1.10
2019-04-03T05:58:15.582Z,1.20
2019-04-03T05:59:13.066Z,1.10
2019-04-03T06:00:13.049Z,1.00
2019-04-03T06:01:13.414Z,1.20
2019-04-03T06:02:16.259Z,1.30
2019-04-03T06:03:13.015Z,1.10
2019-04-03T06:04:13.002Z,1.00
2019-04-03T06:05:13.281Z,1.00
2019-04-03T06:06:14.490Z,0.90
2019-04-03T06:07:13.523Z,0.90
2019-04-03T06:08:12.975Z,1.00
2019-04-03T06:09:12.942Z,1.00
2019-04-03T06:10:12.951Z,1.00
2019-04-03T06:11:12.921Z,1.00
2019-04-03T06:12:14.448Z,0.90
2019-04-03T06:13:12.914Z,1.00
2019-04-03T06:14:12.893Z,1.10
2019-04-03T06:15:12.994Z,0.90
2019-04-03T06:16:12.873Z,1.00
2019-04-03T06:17:12.895Z,1.00
2019-04-03T06:18:12.908Z,1.10
2019-04-03T06:19:12.831Z,1.00
2019-04-03T06:20:13.021Z,0.90
2019-04-03T06:21:14.500Z,0.90
2019-04-03T06:22:12.801Z,1.00
2019-04-03T06:23:12.796Z,0.90
2019-04-03T06:24:12.791Z,0.90
2019-04-03T06:25:13.899Z,0.90
2019-04-03T06:26:12.774Z,1.00
2019-04-03T06:27:12.756Z,1.00
2019-04-03T06:28:13.714Z,1.00
2019-04-03T06:29:12.821Z,1.00
2019-04-03T06:30:12.945Z,1.00
2019-04-03T06:31:12.702Z,1.10
2019-04-03T06:32:12.733Z,1.00
2019-04-03T06:33:12.756Z,1.00
2019-04-03T06:34:12.983Z,1.00
2019-04-03T06:35:13.841Z,1.00
2019-04-03T06:36:12.895Z,1.10
2019-04-03T06:37:12.670Z,1.00
2019-04-03T06:38:12.624Z,0.90
2019-04-03T06:39:12.605Z,1.10
2019-04-03T06:40:12.595Z,1.20
2019-04-03T06:41:12.797Z,1.00
2019-04-03T06:42:13.374Z,1.20
2019-04-03T06:43:12.642Z,1.10
2019-04-03T06:44:12.568Z,1.10
2019-04-03T06:45:15.421Z,1.20
2019-04-03T06:46:12.679Z,1.10
2019-04-03T06:47:12.520Z,1.10
2019-04-03T06:48:12.770Z,1.00
2019-04-03T06:49:12.553Z,0.90
2019-04-03T06:50:13.394Z,0.80
2019-04-03T06:51:12.604Z,1.00
2019-04-03T06:52:12.467Z,1.00
2019-04-03T06:53:12.456Z,0.90
2019-04-03T06:54:12.473Z,0.80
2019-04-03T06:55:12.737Z,0.90
2019-04-03T06:56:12.492Z,0.90
2019-04-03T06:57:13.875Z,1.00
2019-04-03T06:58:12.736Z,1.00
2019-04-03T06:59:12.612Z,1.00
2019-04-03T07:00:12.385Z,0.60
2019-04-03T07:01:12.368Z,0.80
2019-04-03T07:02:12.368Z,0.80
2019-04-03T07:03:12.356Z,0.70
2019-04-03T07:04:12.433Z,0.90
2019-04-03T07:05:12.318Z,0.90
2019-04-03T07:06:13.118Z,0.80
2019-04-03T07:07:12.359Z,0.90
2019-04-03T07:08:12.316Z,0.80
2019-04-03T07:09:22.634Z,0.80
2019-04-03T07:10:24.469Z,0.70
2019-04-03T07:11:22.809Z,0.80
2019-04-03T07:12:15.714Z,0.90
2019-04-03T07:13:15.051Z,0.70
2019-04-03T07:14:12.454Z,0.80
2019-04-03T07:15:12.213Z,0.90
2019-04-03T07:16:12.211Z,0.80
2019-04-03T07:17:12.197Z,0.90
2019-04-03T07:18:12.189Z,0.90
2019-04-03T07:19:12.232Z,0.90
2019-04-03T07:20:15.402Z,1.00
2019-04-03T07:21:13.146Z,0.80
2019-04-03T07:22:12.145Z,0.80
2019-04-03T07:23:12.127Z,0.90
2019-04-03T07:24:12.214Z,0.90
2019-04-03T07:25:12.097Z,0.80
2019-04-03T07:26:12.078Z,1.00
2019-04-03T07:27:14.528Z,1.00
2019-04-03T07:28:12.084Z,1.00
2019-04-03T07:29:13.966Z,1.10
2019-04-03T07:30:12.048Z,1.00
2019-04-03T07:31:12.043Z,1.10
2019-04-03T07:32:12.024Z,0.90
2019-04-03T07:33:12.016Z,0.90
2019-04-03T07:34:11.990Z,1.10
2019-04-03T07:35:12.047Z,0.90
2019-04-03T07:36:12.282Z,1.00
2019-04-03T07:37:15.180Z,0.90
2019-04-03T07:38:11.964Z,1.00
2019-04-03T07:39:11.950Z,0.90
2019-04-03T07:40:11.925Z,0.90
2019-04-03T07:41:12.000Z,0.80
2019-04-03T07:42:11.916Z,1.10
2019-04-03T07:43:12.000Z,1.00
2019-04-03T07:44:12.135Z,0.90
2019-04-03T07:45:11.870Z,1.10
2019-04-03T07:46:11.872Z,1.00
2019-04-03T07:47:11.968Z,0.90
2019-04-03T07:48:11.949Z,1.00
2019-04-03T07:49:13.890Z,0.90
2019-04-03T07:50:12.160Z,1.00
2019-04-03T07:51:12.868Z,0.90
2019-04-03T07:52:13.325Z,1.00
2019-04-03T07:53:11.805Z,1.00
2019-04-03T07:54:11.769Z,1.00
2019-04-03T07:55:11.761Z,0.90
2019-04-03T07:56:11.772Z,0.90
2019-04-03T07:57:11.819Z,1.10
2019-04-03T07:58:11.729Z,0.80
2019-04-03T07:59:11.790Z,1.00
2019-04-03T08:00:11.709Z,1.20
2019-04-03T08:01:11.700Z,1.00
2019-04-03T08:02:12.832Z,1.10
2019-04-03T08:03:12.042Z,0.90
2019-04-03T08:04:11.701Z,1.00
2019-04-03T08:05:11.892Z,0.90
2019-04-03T08:06:11.630Z,0.90
2019-04-03T08:07:11.620Z,1.00
2019-04-03T08:08:11.822Z,1.00
2019-04-03T08:09:11.618Z,1.00
2019-04-03T08:10:11.601Z,1.00
2019-04-03T08:11:14.612Z,1.00
2019-04-03T08:12:11.573Z,1.10
2019-04-03T08:13:11.559Z,1.10
2019-04-03T08:14:11.574Z,1.10
2019-04-03T08:15:13.503Z,0.90
2019-04-03T08:16:11.524Z,1.20
2019-04-03T08:17:11.533Z,1.10
2019-04-03T08:18:11.740Z,1.20
2019-04-03T08:19:11.527Z,1.00
2019-04-03T08:20:11.498Z,1.00
2019-04-03T08:21:11.468Z,0.90
2019-04-03T08:22:11.561Z,0.90
2019-04-03T08:23:11.456Z,1.00
2019-04-03T08:24:11.869Z,0.90
2019-04-03T08:25:12.530Z,1.40
2019-04-03T08:26:12.242Z,0.80
2019-04-03T08:27:11.411Z,1.00
2019-04-03T08:28:11.397Z,1.10
2019-04-03T08:29:11.398Z,1.00
2019-04-03T08:30:11.391Z,0.90
2019-04-03T08:31:12.023Z,0.90
2019-04-03T08:32:11.599Z,0.90
2019-04-03T08:33:17.206Z,0.90
2019-04-03T08:34:16.684Z,1.10
2019-04-03T08:35:21.171Z,0.90
2019-04-03T08:36:23.288Z,0.90
2019-04-03T08:37:12.309Z,1.00
2019-04-03T08:38:13.420Z,0.90
2019-04-03T08:39:11.586Z,1.00
2019-04-03T08:40:11.259Z,0.90
2019-04-03T08:41:11.327Z,1.00
2019-04-03T08:42:11.507Z,0.80
2019-04-03T08:43:11.234Z,0.90
2019-04-03T08:44:11.225Z,0.80
2019-04-03T08:45:11.525Z,1.00
2019-04-03T08:46:11.196Z,0.70
2019-04-03T08:47:13.712Z,0.90
2019-04-03T08:48:11.176Z,0.90
2019-04-03T08:49:11.156Z,0.80
2019-04-03T08:50:11.148Z,0.90
2019-04-03T08:51:11.146Z,0.80
2019-04-03T08:52:13.890Z,0.80
2019-04-03T08:53:11.124Z,0.70
2019-04-03T08:54:11.400Z,0.90
2019-04-03T08:55:14.121Z,1.00
2019-04-03T08:56:11.121Z,0.80
2019-04-03T08:57:11.074Z,0.90
2019-04-03T08:58:11.137Z,0.90
2019-04-03T08:59:12.908Z,0.80
2019-04-03T09:00:11.049Z,0.80
2019-04-03T09:01:11.218Z,0.80
2019-04-03T09:02:12.883Z,0.80
2019-04-03T09:03:12.255Z,0.80
2019-04-03T09:04:11.009Z,0.80
2019-04-03T09:05:13.746Z,0.80
2019-04-03T09:06:11.314Z,0.80
2019-04-03T09:07:11.072Z,0.90
2019-04-03T09:08:10.955Z,0.90
2019-04-03T09:09:10.933Z,0.80
2019-04-03T09:10:11.108Z,0.80
2019-04-03T09:11:10.936Z,0.90
2019-04-03T09:12:10.896Z,0.70
2019-04-03T09:13:17.632Z,0.80
2019-04-03T09:14:11.876Z,0.90
2019-04-03T09:15:11.282Z,0.80
2019-04-03T09:16:11.051Z,0.70
2019-04-03T09:17:11.060Z,0.80
2019-04-03T09:18:10.846Z,0.80
2019-04-03T09:19:10.899Z,0.70
2019-04-03T09:20:13.504Z,0.90
2019-04-03T09:21:10.803Z,0.80
2019-04-03T09:22:10.786Z,0.90
2019-04-03T09:23:10.788Z,0.80
2019-04-03T09:24:10.765Z,1.00
2019-04-03T09:25:13.238Z,0.80
2019-04-03T09:26:10.746Z,0.70
2019-04-03T09:27:10.727Z,0.90
2019-04-03T09:28:11.122Z,0.80
2019-04-03T09:29:12.643Z,0.90
2019-04-03T09:30:10.713Z,0.90
2019-04-03T09:31:10.692Z,0.80
2019-04-03T09:32:10.720Z,0.80
2019-04-03T09:33:10.678Z,0.70
2019-04-03T09:34:10.657Z,0.80
2019-04-03T09:35:10.646Z,0.80
2019-04-03T09:36:10.635Z,0.70
2019-04-03T09:37:10.750Z,0.80
2019-04-03T09:38:10.979Z,0.80
2019-04-03T09:39:12.929Z,0.70
2019-04-03T09:40:10.593Z,0.70
2019-04-03T09:41:10.943Z,0.70
2019-04-03T09:42:10.579Z,0.90
2019-04-03T09:43:10.555Z,0.80
2019-04-03T09:44:10.624Z,0.80
2019-04-03T09:45:10.529Z,0.70
2019-04-03T09:46:10.533Z,0.90
2019-04-03T09:47:10.681Z,0.80
2019-04-03T09:48:12.314Z,0.70
2019-04-03T09:49:10.483Z,0.70
2019-04-03T09:50:13.455Z,0.70
2019-04-03T09:51:10.658Z,0.80
2019-04-03T09:52:10.797Z,0.80
2019-04-03T09:53:10.457Z,0.80
2019-04-03T09:54:10.428Z,0.90
2019-04-03T09:55:10.427Z,1.10
2019-04-03T09:56:10.410Z,0.80
2019-04-03T09:57:10.415Z,0.80
2019-04-03T09:58:10.378Z,0.80
2019-04-03T09:59:10.462Z,0.70
2019-04-03T10:00:11.207Z,0.60
2019-04-03T10:01:13.280Z,0.70
2019-04-03T10:02:11.368Z,0.80
2019-04-03T10:03:10.761Z,0.70
2019-04-03T10:04:10.312Z,0.80
2019-04-03T10:05:10.510Z,0.80
2019-04-03T10:06:10.334Z,0.80
2019-04-03T10:07:10.525Z,0.70
2019-04-03T10:08:10.348Z,0.90
2019-04-03T10:09:12.028Z,0.70
2019-04-03T10:10:10.405Z,0.60
2019-04-03T10:11:10.461Z,0.90
2019-04-03T10:12:10.379Z,0.80
2019-04-03T10:13:10.212Z,1.00
2019-04-03T10:14:10.540Z,0.70
2019-04-03T10:15:10.198Z,0.80
2019-04-03T10:16:10.337Z,0.70
2019-04-03T10:17:10.500Z,0.80
2019-04-03T10:18:10.225Z,0.80
2019-04-03T10:19:10.947Z,0.90
2019-04-03T10:20:10.151Z,1.00
2019-04-03T10:21:10.157Z,0.80
2019-04-03T10:22:10.112Z,0.90
2019-04-03T10:23:10.124Z,0.80
2019-04-03T10:24:10.121Z,0.90
2019-04-03T10:25:10.405Z,1.00
2019-04-03T10:26:10.095Z,0.80
2019-04-03T10:27:11.207Z,0.70
2019-04-03T10:28:10.226Z,0.90
2019-04-03T10:29:10.377Z,0.70
2019-04-03T10:30:10.026Z,0.80
2019-04-03T10:31:10.016Z,0.80
2019-04-03T10:32:10.191Z,1.10
2019-04-03T10:33:10.023Z,0.80
2019-04-03T10:34:09.996Z,0.90
2019-04-03T10:35:09.984Z,1.00
2019-04-03T10:36:11.440Z,0.90
2019-04-03T10:37:10.274Z,0.90
2019-04-03T10:38:09.945Z,0.90
2019-04-03T10:39:10.132Z,1.10
2019-04-03T10:40:10.220Z,0.80
2019-04-03T10:41:11.153Z,1.20
2019-04-03T10:42:10.186Z,0.80
2019-04-03T10:43:09.888Z,0.80
2019-04-03T10:44:10.364Z,0.80
2019-04-03T10:45:09.869Z,0.80
2019-04-03T10:46:09.924Z,0.90
2019-04-03T10:47:10.049Z,1.20
2019-04-03T10:48:09.833Z,1.40
2019-04-03T10:49:09.836Z,0.80
2019-04-03T10:50:09.804Z,1.40
2019-04-03T10:51:10.103Z,1.00
2019-04-03T10:52:12.637Z,0.90
2019-04-03T10:53:10.024Z,1.00
2019-04-03T10:54:09.830Z,0.80
2019-04-03T10:55:09.758Z,1.20
2019-04-03T10:56:10.031Z,0.90
2019-04-03T10:57:09.762Z,1.40
2019-04-03T10:58:09.911Z,1.10
2019-04-03T10:59:13.127Z,1.10
2019-04-03T11:00:10.130Z,1.10
2019-04-03T11:01:10.016Z,1.10
2019-04-03T11:02:09.683Z,1.10
2019-04-03T11:03:09.775Z,0.90
2019-04-03T11:04:09.905Z,1.20
2019-04-03T11:05:09.654Z,1.00
2019-04-03T11:06:09.645Z,0.90
2019-04-03T11:07:10.098Z,1.00
2019-04-03T11:08:09.616Z,1.20
2019-04-03T11:09:10.222Z,1.00
2019-04-03T11:10:09.917Z,1.00
2019-04-03T11:11:09.589Z,0.80
2019-04-03T11:12:10.630Z,0.90
2019-04-03T11:13:09.554Z,0.80
2019-04-03T11:14:09.601Z,0.90
2019-04-03T11:15:11.757Z,0.70
2019-04-03T11:16:09.516Z,0.90
2019-04-03T11:17:09.511Z,0.60
2019-04-03T11:18:09.514Z,0.70
2019-04-03T11:19:09.495Z,0.80
2019-04-03T11:20:10.796Z,0.80
2019-04-03T11:21:12.173Z,0.70
2019-04-03T11:22:09.519Z,0.80
2019-04-03T11:23:09.662Z,0.70
2019-04-03T11:24:09.430Z,1.00
2019-04-03T11:25:09.648Z,0.60
2019-04-03T11:26:09.430Z,1.00
2019-04-03T11:27:09.391Z,0.60
2019-04-03T11:28:09.410Z,0.60
2019-04-03T11:29:10.427Z,0.70
2019-04-03T11:30:11.658Z,0.60
2019-04-03T11:31:09.362Z,0.60
2019-04-03T11:32:09.992Z,0.60
2019-04-03T11:33:09.355Z,0.60
2019-04-03T11:34:09.390Z,0.60
2019-04-03T11:35:09.458Z,0.50
2019-04-03T11:36:09.675Z,0.50
2019-04-03T11:37:09.573Z,0.60
2019-04-03T11:38:14.047Z,0.50
2019-04-03T11:39:14.924Z,0.50
2019-04-03T11:40:10.572Z,0.60
2019-04-03T11:41:14.510Z,0.50
2019-04-03T11:42:22.477Z,0.50
2019-04-03T11:43:10.236Z,0.60
2019-04-03T11:44:09.500Z,0.50
2019-04-03T11:45:09.200Z,0.50
2019-04-03T11:46:09.450Z,0.60
2019-04-03T11:47:10.689Z,0.50
2019-04-03T11:48:09.164Z,0.50
2019-04-03T11:49:09.157Z,0.50
2019-04-03T11:50:09.150Z,0.70
2019-04-03T11:51:09.143Z,0.60
2019-04-03T11:52:09.444Z,0.40
2019-04-03T11:53:09.358Z,0.50
2019-04-03T11:54:09.195Z,0.40
2019-04-03T11:55:10.875Z,0.40
2019-04-03T11:56:09.081Z,0.40
2019-04-03T11:57:09.712Z,0.40
2019-04-03T11:58:09.069Z,0.50
2019-04-03T11:59:09.037Z,0.60
2019-04-03T12:00:09.046Z,0.40
2019-04-03T12:01:09.011Z,0.50
2019-04-03T12:02:09.007Z,0.40
2019-04-03T12:03:10.793Z,0.50
2019-04-03T12:04:12.051Z,0.50
2019-04-03T12:05:08.988Z,0.50
2019-04-03T12:06:08.976Z,0.60
2019-04-03T12:07:08.957Z,0.60
2019-04-03T12:08:11.906Z,0.50
2019-04-03T12:09:08.974Z,0.60
2019-04-03T12:10:08.917Z,0.50
2019-04-03T12:11:08.902Z,0.60
2019-04-03T12:12:10.216Z,0.50
2019-04-03T12:13:09.089Z,0.50
2019-04-03T12:14:08.880Z,0.80
2019-04-03T12:15:08.885Z,0.50
2019-04-03T12:16:08.860Z,0.70
2019-04-03T12:17:08.937Z,0.60
2019-04-03T12:18:08.851Z,0.60
2019-04-03T12:19:09.167Z,0.50
2019-04-03T12:20:09.427Z,0.60
2019-04-03T12:21:11.697Z,0.60
2019-04-03T12:22:08.923Z,0.60
2019-04-03T12:23:08.777Z,0.60
2019-04-03T12:24:08.777Z,0.50
2019-04-03T12:25:08.763Z,0.70
2019-04-03T12:26:09.060Z,0.50
2019-04-03T12:27:09.066Z,0.60
2019-04-03T12:28:08.777Z,0.60
2019-04-03T12:29:08.966Z,0.70
2019-04-03T12:30:08.707Z,0.50
2019-04-03T12:31:08.703Z,0.50
2019-04-03T12:32:09.370Z,0.50
2019-04-03T12:33:08.957Z,0.60
2019-04-03T12:34:08.662Z,0.60
2019-04-03T12:35:09.846Z,0.60
2019-04-03T12:36:08.650Z,0.60
2019-04-03T12:37:08.625Z,0.50
2019-04-03T12:38:08.614Z,0.60
2019-04-03T12:39:08.648Z,0.60
2019-04-03T12:40:08.593Z,0.50
2019-04-03T12:41:08.785Z,0.60
2019-04-03T12:42:09.447Z,0.60
2019-04-03T12:43:08.636Z,0.60
2019-04-03T12:44:08.551Z,0.50
2019-04-03T12:45:08.582Z,0.50
2019-04-03T12:46:08.537Z,0.70
2019-04-03T12:47:12.365Z,0.60
2019-04-03T12:48:09.496Z,0.50
2019-04-03T12:49:08.751Z,0.50
2019-04-03T12:50:08.583Z,0.50
2019-04-03T12:51:09.010Z,0.50
2019-04-03T12:52:08.728Z,0.60
2019-04-03T12:53:08.449Z,0.50
2019-04-03T12:54:08.463Z,0.60
2019-04-03T12:55:08.637Z,0.60
2019-04-03T12:56:08.727Z,0.60
2019-04-03T12:57:08.787Z,0.50
2019-04-03T12:58:08.775Z,0.70
2019-04-03T12:59:09.488Z,0.50
2019-04-03T13:00:10.848Z,0.60
2019-04-03T13:01:10.719Z,0.50
2019-04-03T13:02:08.350Z,0.60
2019-04-03T13:03:08.353Z,0.60
2019-04-03T13:04:08.343Z,0.70
2019-04-03T13:05:08.313Z,0.50
2019-04-03T13:06:09.716Z,0.50
2019-04-03T13:07:08.783Z,0.60
2019-04-03T13:08:08.300Z,0.50
2019-04-03T13:09:08.280Z,0.60
2019-04-03T13:10:08.534Z,0.70
2019-04-03T13:11:08.694Z,0.50
2019-04-03T13:12:08.624Z,0.50
2019-04-03T13:13:08.246Z,0.50
2019-04-03T13:14:08.357Z,0.50
2019-04-03T13:15:08.203Z,0.60
2019-04-03T13:16:10.224Z,0.50
2019-04-03T13:17:08.454Z,0.60
2019-04-03T13:18:08.178Z,0.50